KNSE/NSE METAR and TAF weather

Enter ICAO airport designator
Station Type Date Time Source
KNSE METAR 2019/02/20 08:06 UTC NOAA

KNSE 200806Z AUTO 09007KT 3SM BR OVC003 15/15 A3003 RMK AO2 T01500150 $


Station Type Date Time Source
KNSE Decoded METAR 2019/02/20 08:06 UTC NOAA

MILTON WHITING FIELD (NORTH), FL, United States (KNSE) 30-44N 87-01W 60M
Feb 20, 2019 - 03:06 AM EST / 2019.02.20 0806 UTC
Wind: from the E (090 degrees) at 8 MPH (7 KT):0
Visibility: 3 mile(s):0
Sky conditions: overcast
Weather: mist
Temperature: 59.0 F (15.0 C)
Dew Point: 59.0 F (15.0 C)
Relative Humidity: 100%
Pressure (altimeter): 30.03 in. Hg (1016 hPa)
ob: KNSE 200806Z AUTO 09007KT 3SM BR OVC003 15/15 A3003 RMK AO2 T01500150
cycle: 8

Station Type Date Time Source
KNSE TAF 2019/02/20 07:18 UTC NOAA

TAF KNSE 2007/2107 12012KT 6000 -SHRA BR OVC007 WS020/16035KT QNH2996INS
TEMPO 2006/2012 13012G18KT 1600 -SHRA BR OVC004
BECMG 2014/2016 15014G22KT 9999 VCSH BR SCT007 OVC012 QNH2992INS
BECMG 2019/2020 18014G22KT 8000 -SHRA VCTS BKN015 OVC030CB QNH2988INS
TEMPO 2020/2100 4800 TSRA OVC010CB
BECMG 2100/2102 18006KT 4800 BR OVC003 QNH2995INS
TEMPO 2101/2107 1600 BR OVC002 AUTOMATED SENSOR METWATCH 2007 TIL 2010 T19/2008Z T23/2018Z


Example: see airport list